createdAt,value
2022-10-23T00:00:03.255Z,93.4
2022-10-23T00:15:02.661Z,93.5
2022-10-23T00:30:02.978Z,93.9
2022-10-23T00:45:02.616Z,93.9
2022-10-23T01:00:02.885Z,93.7
2022-10-23T01:15:02.308Z,94.1
2022-10-23T01:30:02.760Z,94.4
2022-10-23T01:45:03.217Z,94.3
2022-10-23T02:00:02.655Z,94.3
2022-10-23T02:15:03.075Z,94.3
2022-10-23T02:30:02.679Z,94.4
2022-10-23T02:45:02.973Z,94.5
2022-10-23T03:00:02.389Z,94.6
2022-10-23T03:15:02.827Z,94.7
2022-10-23T03:30:02.280Z,94.8
2022-10-23T03:45:02.755Z,94.9
2022-10-23T04:00:03.166Z,95.1
2022-10-23T04:15:02.725Z,95.2
2022-10-23T04:45:02.709Z,95.4
2022-10-23T05:00:02.964Z,95.5
2022-10-23T05:15:02.361Z,95.5
2022-10-23T05:30:02.854Z,95.7
2022-10-23T05:45:02.264Z,95.7
2022-10-23T06:00:02.731Z,95.7
2022-10-23T06:15:03.148Z,95.9
2022-10-23T06:30:02.716Z,96.0
2022-10-23T06:45:06.283Z,96.1
2022-10-23T07:00:02.683Z,96.1
2022-10-23T07:15:02.925Z,96.2
2022-10-23T07:30:02.344Z,96.3
2022-10-23T07:45:02.817Z,96.4
2022-10-23T08:00:02.252Z,96.6
2022-10-23T08:15:02.768Z,96.8
2022-10-23T08:30:03.139Z,96.8
2022-10-23T08:45:02.742Z,97.0
2022-10-23T09:00:03.026Z,97.0
2022-10-23T09:15:02.467Z,97.0
2022-10-23T09:30:02.921Z,97.1
2022-10-23T09:45:02.382Z,97.2
2022-10-23T10:00:02.783Z,97.1
2022-10-23T10:15:03.185Z,97.0
2022-10-23T10:30:02.794Z,96.7
2022-10-23T10:45:03.078Z,96.4
2022-10-23T11:00:02.499Z,95.9
2022-10-23T11:15:02.942Z,95.6
2022-10-23T11:30:02.391Z,95.2
2022-10-23T11:45:02.854Z,95.4
2022-10-23T12:00:02.272Z,95.3
2022-10-23T12:15:02.809Z,95.2
2022-10-23T12:30:02.138Z,95.0
2022-10-23T12:45:02.813Z,94.5
2022-10-23T13:00:03.068Z,94.6
2022-10-23T13:15:02.436Z,94.2
2022-10-23T13:30:04.967Z,94.2
2022-10-23T14:00:02.849Z,92.8
2022-10-23T14:15:02.218Z,92.5
2022-10-23T14:30:02.804Z,91.9
2022-10-23T14:45:03.121Z,90.6
2022-10-23T15:00:02.559Z,90.4
2022-10-23T15:15:03.005Z,90.6
2022-10-23T15:30:02.471Z,90.7
2022-10-23T15:45:02.878Z,90.6
2022-10-23T16:00:02.316Z,90.9
2022-10-23T16:15:02.822Z,91.2
2022-10-23T16:30:02.203Z,91.6
2022-10-23T16:45:02.858Z,92.1
2022-10-23T17:00:02.073Z,92.4
2022-10-23T17:15:02.529Z,92.9
2022-10-23T17:30:02.941Z,93.0
2022-10-23T17:45:02.397Z,93.0
2022-10-23T18:00:02.880Z,92.3
2022-10-23T18:15:02.293Z,91.8
2022-10-23T18:30:02.875Z,91.3
2022-10-23T18:45:02.206Z,92.4
2022-10-23T19:00:02.826Z,93.0
2022-10-23T19:15:03.048Z,93.4
2022-10-23T19:30:02.521Z,93.6
2022-10-23T19:45:02.955Z,94.1
2022-10-23T20:00:02.422Z,94.6
2022-10-23T20:15:02.898Z,94.7
2022-10-23T20:30:02.249Z,94.9
2022-10-23T20:45:02.912Z,95.0
2022-10-23T21:00:02.175Z,95.2
2022-10-23T21:15:02.608Z,95.2
2022-10-23T21:30:03.053Z,95.5
2022-10-23T21:45:02.481Z,95.4
2022-10-23T22:00:02.929Z,95.5
2022-10-23T22:15:02.357Z,95.8
2022-10-23T22:30:02.932Z,95.9
2022-10-23T22:45:02.218Z,95.9
2022-10-23T23:00:02.641Z,95.8
2022-10-23T23:15:03.128Z,95.4
2022-10-23T23:30:02.568Z,95.3
2022-10-23T23:45:13.893Z,95.0
